sensor_id;sensor_type;location;lat;lon;timestamp;P1;durP1;ratioP1;P2;durP2;ratioP2
16600;SDS011;34891;48.164;11.572;2023-05-07T00:00:49;12.85;;;6.38;;
16600;SDS011;34891;48.164;11.572;2023-05-07T00:05:52;13.25;;;6.45;;
16600;SDS011;34891;48.164;11.572;2023-05-07T00:10:56;12.23;;;5.88;;
16600;SDS011;34891;48.164;11.572;2023-05-07T00:21:01;15.50;;;7.22;;
16600;SDS011;34891;48.164;11.572;2023-05-07T00:26:05;11.23;;;5.50;;
16600;SDS011;34891;48.164;11.572;2023-05-07T00:31:08;10.20;;;5.38;;
16600;SDS011;34891;48.164;11.572;2023-05-07T00:36:11;11.50;;;5.57;;
16600;SDS011;34891;48.164;11.572;2023-05-07T00:41:15;14.75;;;6.25;;
16600;SDS011;34891;48.164;11.572;2023-05-07T00:51:20;14.57;;;6.07;;
16600;SDS011;34891;48.164;11.572;2023-05-07T00:56:24;9.70;;;5.28;;
16600;SDS011;34891;48.164;11.572;2023-05-07T01:01:27;15.32;;;6.93;;
16600;SDS011;34891;48.164;11.572;2023-05-07T01:06:30;14.13;;;6.55;;
16600;SDS011;34891;48.164;11.572;2023-05-07T01:11:36;10.43;;;5.47;;
16600;SDS011;34891;48.164;11.572;2023-05-07T01:16:39;11.77;;;5.75;;
16600;SDS011;34891;48.164;11.572;2023-05-07T01:21:43;10.35;;;5.32;;
16600;SDS011;34891;48.164;11.572;2023-05-07T01:26:48;13.15;;;5.95;;
16600;SDS011;34891;48.164;11.572;2023-05-07T01:31:51;8.75;;;5.32;;
16600;SDS011;34891;48.164;11.572;2023-05-07T01:36:55;9.15;;;5.32;;
16600;SDS011;34891;48.164;11.572;2023-05-07T01:42:00;10.52;;;5.65;;
16600;SDS011;34891;48.164;11.572;2023-05-07T01:47:03;14.18;;;5.90;;
16600;SDS011;34891;48.164;11.572;2023-05-07T01:52:06;11.02;;;5.47;;
16600;SDS011;34891;48.164;11.572;2023-05-07T01:57:10;14.07;;;5.78;;
16600;SDS011;34891;48.164;11.572;2023-05-07T02:02:13;11.80;;;5.43;;
16600;SDS011;34891;48.164;11.572;2023-05-07T02:07:16;11.90;;;6.03;;
16600;SDS011;34891;48.164;11.572;2023-05-07T02:12:20;10.68;;;5.35;;
16600;SDS011;34891;48.164;11.572;2023-05-07T02:22:25;7.50;;;4.53;;
16600;SDS011;34891;48.164;11.572;2023-05-07T02:27:29;8.65;;;4.95;;
16600;SDS011;34891;48.164;11.572;2023-05-07T02:32:31;12.18;;;5.57;;
16600;SDS011;34891;48.164;11.572;2023-05-07T02:37:34;10.27;;;5.15;;
16600;SDS011;34891;48.164;11.572;2023-05-07T02:42:38;7.95;;;4.85;;
16600;SDS011;34891;48.164;11.572;2023-05-07T02:47:41;8.73;;;4.88;;
16600;SDS011;34891;48.164;11.572;2023-05-07T02:52:44;9.82;;;4.70;;
16600;SDS011;34891;48.164;11.572;2023-05-07T02:57:48;11.15;;;5.07;;
16600;SDS011;34891;48.164;11.572;2023-05-07T03:02:51;12.00;;;5.18;;
16600;SDS011;34891;48.164;11.572;2023-05-07T03:07:53;8.77;;;4.70;;
16600;SDS011;34891;48.164;11.572;2023-05-07T03:12:57;9.52;;;5.07;;
16600;SDS011;34891;48.164;11.572;2023-05-07T03:18:00;10.40;;;5.28;;
16600;SDS011;34891;48.164;11.572;2023-05-07T03:23:03;10.38;;;4.88;;
16600;SDS011;34891;48.164;11.572;2023-05-07T03:28:07;9.55;;;5.15;;
16600;SDS011;34891;48.164;11.572;2023-05-07T03:38:12;8.40;;;4.68;;
16600;SDS011;34891;48.164;11.572;2023-05-07T03:43:16;10.05;;;4.65;;
16600;SDS011;34891;48.164;11.572;2023-05-07T03:48:19;10.13;;;5.30;;
16600;SDS011;34891;48.164;11.572;2023-05-07T03:53:21;9.98;;;5.40;;
16600;SDS011;34891;48.164;11.572;2023-05-07T03:58:26;11.90;;;5.50;;
16600;SDS011;34891;48.164;11.572;2023-05-07T04:08:31;8.50;;;4.30;;
16600;SDS011;34891;48.164;11.572;2023-05-07T04:13:35;8.27;;;4.82;;
16600;SDS011;34891;48.164;11.572;2023-05-07T04:23:40;9.63;;;4.32;;
16600;SDS011;34891;48.164;11.572;2023-05-07T04:28:43;9.23;;;4.80;;
16600;SDS011;34891;48.164;11.572;2023-05-07T04:38:48;10.63;;;4.88;;
16600;SDS011;34891;48.164;11.572;2023-05-07T04:43:52;9.60;;;5.03;;
16600;SDS011;34891;48.164;11.572;2023-05-07T04:53:58;9.50;;;4.53;;
16600;SDS011;34891;48.164;11.572;2023-05-07T04:59:05;10.25;;;4.78;;
16600;SDS011;34891;48.164;11.572;2023-05-07T05:04:08;8.23;;;4.75;;
16600;SDS011;34891;48.164;11.572;2023-05-07T05:14:15;8.13;;;5.00;;
16600;SDS011;34891;48.164;11.572;2023-05-07T05:24:20;6.78;;;3.88;;
16600;SDS011;34891;48.164;11.572;2023-05-07T05:29:24;7.07;;;3.72;;
16600;SDS011;34891;48.164;11.572;2023-05-07T05:34:27;6.70;;;3.45;;
16600;SDS011;34891;48.164;11.572;2023-05-07T05:39:30;6.30;;;3.67;;
16600;SDS011;34891;48.164;11.572;2023-05-07T05:44:34;5.60;;;3.67;;
16600;SDS011;34891;48.164;11.572;2023-05-07T05:49:38;7.10;;;3.63;;
16600;SDS011;34891;48.164;11.572;2023-05-07T05:54:40;8.18;;;4.10;;
16600;SDS011;34891;48.164;11.572;2023-05-07T05:59:44;5.68;;;3.40;;
16600;SDS011;34891;48.164;11.572;2023-05-07T06:04:48;6.70;;;3.30;;
16600;SDS011;34891;48.164;11.572;2023-05-07T06:09:51;7.27;;;3.57;;
16600;SDS011;34891;48.164;11.572;2023-05-07T06:14:55;6.43;;;3.65;;
16600;SDS011;34891;48.164;11.572;2023-05-07T06:19:57;8.55;;;4.03;;
16600;SDS011;34891;48.164;11.572;2023-05-07T06:25:00;8.00;;;3.40;;
16600;SDS011;34891;48.164;11.572;2023-05-07T06:30:07;5.30;;;3.22;;
16600;SDS011;34891;48.164;11.572;2023-05-07T06:35:11;6.10;;;3.42;;
16600;SDS011;34891;48.164;11.572;2023-05-07T06:40:13;5.40;;;3.00;;
16600;SDS011;34891;48.164;11.572;2023-05-07T06:45:18;5.32;;;2.92;;
16600;SDS011;34891;48.164;11.572;2023-05-07T06:50:21;5.80;;;1.60;;
16600;SDS011;34891;48.164;11.572;2023-05-07T06:55:24;5.13;;;2.37;;
16600;SDS011;34891;48.164;11.572;2023-05-07T07:00:28;4.35;;;2.63;;
16600;SDS011;34891;48.164;11.572;2023-05-07T07:05:32;5.85;;;2.95;;
16600;SDS011;34891;48.164;11.572;2023-05-07T07:10:35;3.25;;;2.25;;
16600;SDS011;34891;48.164;11.572;2023-05-07T07:15:39;5.55;;;3.15;;
16600;SDS011;34891;48.164;11.572;2023-05-07T07:20:43;5.47;;;3.03;;
16600;SDS011;34891;48.164;11.572;2023-05-07T07:25:47;7.57;;;3.00;;
16600;SDS011;34891;48.164;11.572;2023-05-07T07:35:55;4.32;;;2.88;;
16600;SDS011;34891;48.164;11.572;2023-05-07T07:40:57;4.15;;;2.92;;
16600;SDS011;34891;48.164;11.572;2023-05-07T07:46:00;3.78;;;2.90;;
16600;SDS011;34891;48.164;11.572;2023-05-07T07:51:04;5.28;;;3.78;;
16600;SDS011;34891;48.164;11.572;2023-05-07T07:56:07;3.92;;;2.95;;
16600;SDS011;34891;48.164;11.572;2023-05-07T08:01:10;4.88;;;3.00;;
16600;SDS011;34891;48.164;11.572;2023-05-07T08:06:15;5.63;;;2.85;;
16600;SDS011;34891;48.164;11.572;2023-05-07T08:11:18;5.70;;;2.97;;
16600;SDS011;34891;48.164;11.572;2023-05-07T08:16:21;5.57;;;3.28;;
16600;SDS011;34891;48.164;11.572;2023-05-07T08:21:26;6.68;;;3.30;;
16600;SDS011;34891;48.164;11.572;2023-05-07T08:26:28;3.15;;;2.72;;
16600;SDS011;34891;48.164;11.572;2023-05-07T08:31:31;3.38;;;2.53;;
16600;SDS011;34891;48.164;11.572;2023-05-07T08:36:35;7.97;;;3.33;;
16600;SDS011;34891;48.164;11.572;2023-05-07T08:41:37;3.70;;;3.08;;
16600;SDS011;34891;48.164;11.572;2023-05-07T08:46:41;3.90;;;2.90;;
16600;SDS011;34891;48.164;11.572;2023-05-07T08:51:46;6.70;;;3.25;;
16600;SDS011;34891;48.164;11.572;2023-05-07T08:56:48;5.10;;;3.15;;
16600;SDS011;34891;48.164;11.572;2023-05-07T09:01:51;4.45;;;3.30;;
16600;SDS011;34891;48.164;11.572;2023-05-07T09:06:56;3.72;;;3.03;;
16600;SDS011;34891;48.164;11.572;2023-05-07T09:12:05;4.60;;;3.42;;
16600;SDS011;34891;48.164;11.572;2023-05-07T09:17:07;4.82;;;3.60;;
16600;SDS011;34891;48.164;11.572;2023-05-07T09:22:11;6.30;;;3.67;;
16600;SDS011;34891;48.164;11.572;2023-05-07T09:27:14;3.67;;;3.38;;
16600;SDS011;34891;48.164;11.572;2023-05-07T09:32:17;6.05;;;3.42;;
16600;SDS011;34891;48.164;11.572;2023-05-07T09:37:21;4.35;;;3.15;;
16600;SDS011;34891;48.164;11.572;2023-05-07T09:42:24;3.95;;;3.00;;
16600;SDS011;34891;48.164;11.572;2023-05-07T09:47:27;4.03;;;2.75;;
16600;SDS011;34891;48.164;11.572;2023-05-07T09:52:36;3.88;;;3.25;;
16600;SDS011;34891;48.164;11.572;2023-05-07T09:58:01;2.97;;;2.40;;
16600;SDS011;34891;48.164;11.572;2023-05-07T10:03:24;4.45;;;3.10;;
16600;SDS011;34891;48.164;11.572;2023-05-07T10:08:50;3.38;;;2.78;;
16600;SDS011;34891;48.164;11.572;2023-05-07T10:14:13;2.78;;;2.50;;
16600;SDS011;34891;48.164;11.572;2023-05-07T10:19:36;4.60;;;2.53;;
16600;SDS011;34891;48.164;11.572;2023-05-07T10:25:02;3.58;;;2.10;;
16600;SDS011;34891;48.164;11.572;2023-05-07T10:30:33;2.50;;;2.00;;
16600;SDS011;34891;48.164;11.572;2023-05-07T10:36:01;3.13;;;2.22;;
16600;SDS011;34891;48.164;11.572;2023-05-07T10:41:27;2.28;;;2.08;;
16600;SDS011;34891;48.164;11.572;2023-05-07T10:47:02;3.63;;;2.33;;
16600;SDS011;34891;48.164;11.572;2023-05-07T10:52:26;5.28;;;2.90;;
16600;SDS011;34891;48.164;11.572;2023-05-07T10:57:50;3.60;;;2.85;;
16600;SDS011;34891;48.164;11.572;2023-05-07T11:03:17;4.05;;;2.40;;
16600;SDS011;34891;48.164;11.572;2023-05-07T11:08:54;4.55;;;2.30;;
16600;SDS011;34891;48.164;11.572;2023-05-07T11:19:56;5.53;;;3.15;;
16600;SDS011;34891;48.164;11.572;2023-05-07T11:25:19;3.47;;;2.30;;
16600;SDS011;34891;48.164;11.572;2023-05-07T11:30:42;4.35;;;3.00;;
16600;SDS011;34891;48.164;11.572;2023-05-07T11:36:07;3.13;;;2.83;;
16600;SDS011;34891;48.164;11.572;2023-05-07T11:41:34;3.33;;;2.58;;
16600;SDS011;34891;48.164;11.572;2023-05-07T11:46:58;3.60;;;2.50;;
16600;SDS011;34891;48.164;11.572;2023-05-07T11:52:24;4.43;;;2.58;;
16600;SDS011;34891;48.164;11.572;2023-05-07T11:57:47;9.30;;;2.90;;
16600;SDS011;34891;48.164;11.572;2023-05-07T12:03:10;4.47;;;2.50;;
16600;SDS011;34891;48.164;11.572;2023-05-07T12:08:35;6.55;;;3.13;;
16600;SDS011;34891;48.164;11.572;2023-05-07T12:13:59;5.32;;;2.88;;
16600;SDS011;34891;48.164;11.572;2023-05-07T12:19:22;4.90;;;2.50;;
16600;SDS011;34891;48.164;11.572;2023-05-07T12:24:47;5.57;;;2.90;;
16600;SDS011;34891;48.164;11.572;2023-05-07T12:30:12;2.60;;;2.28;;
16600;SDS011;34891;48.164;11.572;2023-05-07T12:35:36;4.95;;;2.55;;
16600;SDS011;34891;48.164;11.572;2023-05-07T12:41:02;3.53;;;2.30;;
16600;SDS011;34891;48.164;11.572;2023-05-07T12:46:25;2.58;;;2.10;;
16600;SDS011;34891;48.164;11.572;2023-05-07T12:51:48;4.32;;;2.20;;
16600;SDS011;34891;48.164;11.572;2023-05-07T12:57:13;3.05;;;1.90;;
16600;SDS011;34891;48.164;11.572;2023-05-07T13:02:37;2.17;;;1.90;;
16600;SDS011;34891;48.164;11.572;2023-05-07T13:08:00;4.75;;;2.15;;
16600;SDS011;34891;48.164;11.572;2023-05-07T13:13:25;3.45;;;2.10;;
16600;SDS011;34891;48.164;11.572;2023-05-07T13:18:52;2.10;;;1.58;;
16600;SDS011;34891;48.164;11.572;2023-05-07T13:24:15;1.85;;;1.73;;
16600;SDS011;34891;48.164;11.572;2023-05-07T13:29:39;2.30;;;1.50;;
16600;SDS011;34891;48.164;11.572;2023-05-07T13:35:03;2.33;;;1.70;;
16600;SDS011;34891;48.164;11.572;2023-05-07T13:40:26;2.22;;;1.95;;
16600;SDS011;34891;48.164;11.572;2023-05-07T13:45:51;2.10;;;1.90;;
16600;SDS011;34891;48.164;11.572;2023-05-07T13:51:15;2.60;;;2.00;;
16600;SDS011;34891;48.164;11.572;2023-05-07T13:56:38;1.88;;;1.70;;
16600;SDS011;34891;48.164;11.572;2023-05-07T14:02:03;3.08;;;1.83;;
16600;SDS011;34891;48.164;11.572;2023-05-07T14:07:26;3.30;;;1.80;;
16600;SDS011;34891;48.164;11.572;2023-05-07T14:12:50;3.42;;;2.13;;
16600;SDS011;34891;48.164;11.572;2023-05-07T14:18:15;2.70;;;1.70;;
16600;SDS011;34891;48.164;11.572;2023-05-07T14:23:38;4.47;;;2.40;;
16600;SDS011;34891;48.164;11.572;2023-05-07T14:29:01;3.47;;;2.30;;
16600;SDS011;34891;48.164;11.572;2023-05-07T14:34:26;5.55;;;2.83;;
16600;SDS011;34891;48.164;11.572;2023-05-07T14:39:49;3.80;;;2.17;;
16600;SDS011;34891;48.164;11.572;2023-05-07T14:45:12;4.72;;;2.38;;
16600;SDS011;34891;48.164;11.572;2023-05-07T14:50:36;3.13;;;1.90;;
16600;SDS011;34891;48.164;11.572;2023-05-07T14:55:59;3.35;;;2.58;;
16600;SDS011;34891;48.164;11.572;2023-05-07T15:01:24;3.55;;;2.60;;
16600;SDS011;34891;48.164;11.572;2023-05-07T15:06:49;3.42;;;2.60;;
16600;SDS011;34891;48.164;11.572;2023-05-07T15:12:12;4.28;;;2.70;;
16600;SDS011;34891;48.164;11.572;2023-05-07T15:17:35;4.97;;;2.35;;
16600;SDS011;34891;48.164;11.572;2023-05-07T15:23:00;3.28;;;2.08;;
16600;SDS011;34891;48.164;11.572;2023-05-07T15:28:24;2.90;;;2.40;;
16600;SDS011;34891;48.164;11.572;2023-05-07T15:33:47;3.78;;;2.40;;
16600;SDS011;34891;48.164;11.572;2023-05-07T15:39:12;3.45;;;2.03;;
16600;SDS011;34891;48.164;11.572;2023-05-07T15:44:35;3.35;;;2.50;;
16600;SDS011;34891;48.164;11.572;2023-05-07T15:49:59;3.15;;;2.05;;
16600;SDS011;34891;48.164;11.572;2023-05-07T15:55:23;2.88;;;2.05;;
16600;SDS011;34891;48.164;11.572;2023-05-07T16:00:46;4.47;;;1.90;;
16600;SDS011;34891;48.164;11.572;2023-05-07T16:06:09;4.15;;;1.95;;
16600;SDS011;34891;48.164;11.572;2023-05-07T16:11:34;2.55;;;1.70;;
16600;SDS011;34891;48.164;11.572;2023-05-07T16:16:57;4.40;;;2.28;;
16600;SDS011;34891;48.164;11.572;2023-05-07T16:22:20;3.22;;;1.70;;
16600;SDS011;34891;48.164;11.572;2023-05-07T16:27:47;2.97;;;2.05;;
16600;SDS011;34891;48.164;11.572;2023-05-07T16:33:10;3.42;;;1.88;;
16600;SDS011;34891;48.164;11.572;2023-05-07T16:38:33;3.28;;;1.70;;
16600;SDS011;34891;48.164;11.572;2023-05-07T16:43:57;3.95;;;1.80;;
16600;SDS011;34891;48.164;11.572;2023-05-07T16:49:21;2.45;;;1.75;;
16600;SDS011;34891;48.164;11.572;2023-05-07T16:54:44;2.70;;;1.80;;
16600;SDS011;34891;48.164;11.572;2023-05-07T17:00:10;4.22;;;1.83;;
16600;SDS011;34891;48.164;11.572;2023-05-07T17:05:33;3.25;;;1.83;;
16600;SDS011;34891;48.164;11.572;2023-05-07T17:10:56;3.72;;;1.88;;
16600;SDS011;34891;48.164;11.572;2023-05-07T17:16:20;2.70;;;1.77;;
16600;SDS011;34891;48.164;11.572;2023-05-07T17:21:43;4.85;;;2.13;;
16600;SDS011;34891;48.164;11.572;2023-05-07T17:32:41;3.45;;;1.98;;
16600;SDS011;34891;48.164;11.572;2023-05-07T17:38:04;3.97;;;1.70;;
16600;SDS011;34891;48.164;11.572;2023-05-07T17:43:26;5.20;;;2.50;;
16600;SDS011;34891;48.164;11.572;2023-05-07T17:48:51;4.45;;;2.38;;
16600;SDS011;34891;48.164;11.572;2023-05-07T17:54:14;3.13;;;1.90;;
16600;SDS011;34891;48.164;11.572;2023-05-07T17:59:37;4.47;;;2.40;;
16600;SDS011;34891;48.164;11.572;2023-05-07T18:05:02;3.88;;;1.83;;
16600;SDS011;34891;48.164;11.572;2023-05-07T18:10:25;2.65;;;2.03;;
16600;SDS011;34891;48.164;11.572;2023-05-07T18:15:49;5.95;;;2.08;;
16600;SDS011;34891;48.164;11.572;2023-05-07T18:21:13;4.68;;;1.80;;
16600;SDS011;34891;48.164;11.572;2023-05-07T18:26:39;2.35;;;1.75;;
16600;SDS011;34891;48.164;11.572;2023-05-07T18:32:02;4.40;;;2.50;;
16600;SDS011;34891;48.164;11.572;2023-05-07T18:37:26;4.27;;;2.10;;
16600;SDS011;34891;48.164;11.572;2023-05-07T18:42:49;4.22;;;1.90;;
16600;SDS011;34891;48.164;11.572;2023-05-07T18:48:12;4.23;;;2.13;;
16600;SDS011;34891;48.164;11.572;2023-05-07T18:53:18;5.80;;;2.50;;
16600;SDS011;34891;48.164;11.572;2023-05-07T18:58:21;5.78;;;2.40;;
16600;SDS011;34891;48.164;11.572;2023-05-07T19:03:24;3.65;;;2.17;;
16600;SDS011;34891;48.164;11.572;2023-05-07T19:08:28;5.55;;;2.67;;
16600;SDS011;34891;48.164;11.572;2023-05-07T19:13:31;4.47;;;2.38;;
16600;SDS011;34891;48.164;11.572;2023-05-07T19:18:35;4.32;;;2.60;;
16600;SDS011;34891;48.164;11.572;2023-05-07T19:23:39;5.75;;;2.80;;
16600;SDS011;34891;48.164;11.572;2023-05-07T19:28:43;6.40;;;3.33;;
16600;SDS011;34891;48.164;11.572;2023-05-07T19:33:57;7.60;;;3.25;;
16600;SDS011;34891;48.164;11.572;2023-05-07T19:39:01;8.40;;;3.70;;
16600;SDS011;34891;48.164;11.572;2023-05-07T19:44:04;6.85;;;3.60;;
16600;SDS011;34891;48.164;11.572;2023-05-07T19:49:07;9.90;;;3.97;;
16600;SDS011;34891;48.164;11.572;2023-05-07T19:54:14;14.00;;;6.30;;
16600;SDS011;34891;48.164;11.572;2023-05-07T19:59:17;13.55;;;5.80;;
16600;SDS011;34891;48.164;11.572;2023-05-07T20:04:19;10.07;;;4.27;;
16600;SDS011;34891;48.164;11.572;2023-05-07T20:09:24;8.52;;;4.20;;
16600;SDS011;34891;48.164;11.572;2023-05-07T20:14:26;8.55;;;4.25;;
16600;SDS011;34891;48.164;11.572;2023-05-07T20:19:29;7.63;;;4.47;;
16600;SDS011;34891;48.164;11.572;2023-05-07T20:24:36;8.35;;;4.40;;
16600;SDS011;34891;48.164;11.572;2023-05-07T20:29:40;8.27;;;4.43;;
16600;SDS011;34891;48.164;11.572;2023-05-07T20:34:43;8.57;;;4.43;;
16600;SDS011;34891;48.164;11.572;2023-05-07T20:39:47;5.93;;;3.70;;
16600;SDS011;34891;48.164;11.572;2023-05-07T20:44:49;6.45;;;3.97;;
16600;SDS011;34891;48.164;11.572;2023-05-07T20:49:52;8.57;;;3.97;;
16600;SDS011;34891;48.164;11.572;2023-05-07T20:54:56;7.57;;;3.50;;
16600;SDS011;34891;48.164;11.572;2023-05-07T20:59:59;10.65;;;4.82;;
16600;SDS011;34891;48.164;11.572;2023-05-07T21:05:02;7.10;;;4.10;;
16600;SDS011;34891;48.164;11.572;2023-05-07T21:10:07;9.00;;;4.77;;
16600;SDS011;34891;48.164;11.572;2023-05-07T21:15:10;8.38;;;4.97;;
16600;SDS011;34891;48.164;11.572;2023-05-07T21:20:13;7.72;;;4.38;;
16600;SDS011;34891;48.164;11.572;2023-05-07T21:25:18;7.65;;;4.18;;
16600;SDS011;34891;48.164;11.572;2023-05-07T21:30:20;10.43;;;5.63;;
16600;SDS011;34891;48.164;11.572;2023-05-07T21:35:23;7.43;;;4.30;;
16600;SDS011;34891;48.164;11.572;2023-05-07T21:40:28;10.27;;;5.27;;
16600;SDS011;34891;48.164;11.572;2023-05-07T21:45:31;9.27;;;4.85;;
16600;SDS011;34891;48.164;11.572;2023-05-07T21:50:34;8.13;;;4.38;;
16600;SDS011;34891;48.164;11.572;2023-05-07T21:55:38;10.00;;;4.68;;
16600;SDS011;34891;48.164;11.572;2023-05-07T22:00:41;9.95;;;5.05;;
16600;SDS011;34891;48.164;11.572;2023-05-07T22:05:44;9.70;;;5.20;;
16600;SDS011;34891;48.164;11.572;2023-05-07T22:10:51;9.15;;;4.78;;
16600;SDS011;34891;48.164;11.572;2023-05-07T22:15:53;11.43;;;5.45;;
16600;SDS011;34891;48.164;11.572;2023-05-07T22:20:58;10.07;;;5.28;;
16600;SDS011;34891;48.164;11.572;2023-05-07T22:26:07;8.85;;;4.85;;
16600;SDS011;34891;48.164;11.572;2023-05-07T22:31:10;9.82;;;5.00;;
16600;SDS011;34891;48.164;11.572;2023-05-07T22:36:13;9.27;;;4.77;;
16600;SDS011;34891;48.164;11.572;2023-05-07T22:41:18;10.23;;;4.88;;
16600;SDS011;34891;48.164;11.572;2023-05-07T22:46:21;11.50;;;4.75;;
16600;SDS011;34891;48.164;11.572;2023-05-07T22:51:24;10.30;;;4.65;;
16600;SDS011;34891;48.164;11.572;2023-05-07T22:56:29;11.18;;;5.00;;
16600;SDS011;34891;48.164;11.572;2023-05-07T23:01:32;10.73;;;5.00;;
16600;SDS011;34891;48.164;11.572;2023-05-07T23:06:35;9.27;;;5.15;;
16600;SDS011;34891;48.164;11.572;2023-05-07T23:11:39;10.02;;;4.78;;
16600;SDS011;34891;48.164;11.572;2023-05-07T23:16:43;12.20;;;5.35;;
16600;SDS011;34891;48.164;11.572;2023-05-07T23:21:47;12.75;;;5.47;;
16600;SDS011;34891;48.164;11.572;2023-05-07T23:26:51;13.00;;;5.63;;
16600;SDS011;34891;48.164;11.572;2023-05-07T23:31:53;11.02;;;5.13;;
16600;SDS011;34891;48.164;11.572;2023-05-07T23:36:56;10.77;;;5.40;;
16600;SDS011;34891;48.164;11.572;2023-05-07T23:42:00;11.05;;;5.40;;
16600;SDS011;34891;48.164;11.572;2023-05-07T23:47:03;11.40;;;5.28;;
16600;SDS011;34891;48.164;11.572;2023-05-07T23:52:05;11.90;;;4.97;;
16600;SDS011;34891;48.164;11.572;2023-05-07T23:57:10;13.73;;;5.40;;
